Weather Models
Both GFS & NAM
00z 06z 12z 18z
24hr Precip
00z 06z 12z 18z
36hr Simulated radar
00z 06z 12z 18z
SKEWT Soundings
00z 12z
Current Conditions (Updated 10:10am on 5/20/18)
Temperature
 74°
2.31
74°  
62°  
0
10
20
30
40
50
60
70
80
90
100
Dew Point
70°
71°  
62°  
-20
-10
0
10
20
30
40
50
60
70
80
Heat Index
79°
80°  
69°  
30
40
50
60
70
80
90
100
110
120
130
Heat Index
Humidity
86%
98% 
86% 
0
10
20
30
40
50
60
70
80
90
100
Barometer
30.01
   Steady
30.07  
30.01  
28.00
28.30
28.60
28.90
29.20
29.50
29.80
30.10
30.40
30.70
31.00
Temperature
Dew Point
Humidity
Pressure
Wind
8mph
WSW
Daily Rain
0.00
0.10
0.20
0.30
0.40
0.50
0.60
0.70
0.80
0.90
1.00
Rain Today
 0.63" 
Month Rain
0.00
0.50
1.00
1.50
2.00
2.50
3.00
3.50
4.00
4.50
5.00
Month Rain
 3.08" 
Year Rain
0.00
2.50
5.00
7.50
10.00
12.50
15.00
17.50
20.00
22.50
25.00
Year Rain
 19.42" 
Sun & Moon Data
Sunrise 5:40am
Sunset 8:13pm
Moonrise 10:53am
Moonset 12:37am
Moon % 26%
Other Rain Data
Past Hour 0.00 Past 24 Hours 0.63
Past 3 Hours 0.00 Past 7 Days 1.55
Past 6 Hours 0.00
Cloud Height
1114


Current Front Map
Current Satellite map
7 Day Forecast
NWS Forecast for Philadelphia PA
National Weather Service Forecast for: Philadelphia PA
Issued by: National Weather Service Philadelphia, PA
Updated: 9:36 am EDT May 20, 2018

Philadelphia
 
Today

Today: A chance of showers, with thunderstorms also possible after 1pm.  Mostly cloudy, with a high near 84. West wind 13 to 15 mph.  Chance of precipitation is 50%. New rainfall amounts between a tenth and quarter of an inch, except higher amounts possible in thunderstorms.
Chance
Showers then
Chance
T-storms
Tonight

Tonight: A slight chance of showers and thunderstorms before 9pm.  Partly cloudy, with a low around 63. North wind 6 to 9 mph.  Chance of precipitation is 20%.
Slight Chance
T-storms then
Partly Cloudy
Monday

Monday: Partly sunny, with a high near 78. North wind 5 to 7 mph becoming calm  in the afternoon.
Partly Sunny

Monday
Night
Monday Night: A chance of showers and thunderstorms after 9pm.  Mostly cloudy, with a low around 62. Light southeast wind.  Chance of precipitation is 40%. New rainfall amounts between a tenth and quarter of an inch, except higher amounts possible in thunderstorms.
Chance
Showers

Tuesday

Tuesday: A chance of showers and thunderstorms.  Cloudy, with a high near 75. East wind 3 to 5 mph.  Chance of precipitation is 50%. New rainfall amounts between a tenth and quarter of an inch, except higher amounts possible in thunderstorms.
Chance
Showers

Tuesday
Night
Tuesday Night: A chance of showers and thunderstorms.  Mostly cloudy, with a low around 63. Chance of precipitation is 50%. New rainfall amounts of less than a tenth of an inch, except higher amounts possible in thunderstorms.
Chance
Showers

Wednesday

Wednesday: Partly sunny, with a high near 81.
Partly Sunny

Wednesday
Night
Wednesday Night: Partly cloudy, with a low around 62.
Partly Cloudy

Thursday

Thursday: Sunny, with a high near 81.
Sunny

Hi 84 °F Lo 63 °F Hi 78 °F Lo 62 °F Hi 75 °F Lo 63 °F Hi 81 °F Lo 62 °F Hi 81 °F

 

Today
 
A chance of showers, with thunderstorms also possible after 1pm. Mostly cloudy, with a high near 84. West wind 13 to 15 mph. Chance of precipitation is 50%. New rainfall amounts between a tenth and quarter of an inch, except higher amounts possible in thunderstorms.
Tonight
 
A slight chance of showers and thunderstorms before 9pm. Partly cloudy, with a low around 63. North wind 6 to 9 mph. Chance of precipitation is 20%.
Monday
 
Partly sunny, with a high near 78. North wind 5 to 7 mph becoming calm in the afternoon.
Monday Night
 
A chance of showers and thunderstorms after 9pm. Mostly cloudy, with a low around 62. Light southeast wind. Chance of precipitation is 40%. New rainfall amounts between a tenth and quarter of an inch, except higher amounts possible in thunderstorms.
Tuesday
 
A chance of showers and thunderstorms. Cloudy, with a high near 75. East wind 3 to 5 mph. Chance of precipitation is 50%. New rainfall amounts between a tenth and quarter of an inch, except higher amounts possible in thunderstorms.
Tuesday Night
 
A chance of showers and thunderstorms. Mostly cloudy, with a low around 63. Chance of precipitation is 50%. New rainfall amounts of less than a tenth of an inch, except higher amounts possible in thunderstorms.
Wednesday
 
Partly sunny, with a high near 81.
Wednesday Night
 
Partly cloudy, with a low around 62.
Thursday
 
Sunny, with a high near 81.
Thursday Night
 
Mostly clear, with a low around 61.
Friday
 
Sunny, with a high near 82.
Friday Night
 
Partly cloudy, with a low around 64.
Saturday
 
Mostly sunny, with a high near 83.

 

Forecast from NOAA-NWS for Philadelphia PA.

Area Weather Current Conditions
Nearby METAR Reports

KPHL - Philadelphia, Pennsylvania
Updated: Sun, 20-May-2018 9:54am EDT
Overcast
Overcast
 Wind from WSW
Wind: WSW 17 mph , 28 km/h
Temperature: 73°F , 23°C
Dew Point: 70°F , 21°C
Humidity: 89%
Barometer: 30.00 inHg , 1015.9 hPa
Clouds: Overcast
Visibility: 10 miles , 16 km
Cloud details: Mostly Cloudy 1500 ft
Mostly Cloudy 2200 ft
Overcast 3900 ft
2018/05/20 13:54 KPHL 201354Z 25015KT 10SM BKN015 BKN022 OVC039 23/21 A3000 RMK AO2 SLP159 CIG 013V017 T02280206 $
KMPO - Mt. Pocono, Pennsylvania
Updated: Sun, 20-May-2018 9:53am EDT
Overcast
Overcast
 Wind from WSW
Wind: WSW 10 mph , 17 km/h
Temperature: 63°F , 17°C
Dew Point: 63°F , 17°C
Humidity: 100%
Barometer: 30.00 inHg , 1015.9 hPa
Clouds: Overcast
Visibility: 10 miles , 16 km
Cloud details: Overcast 600 ft
2018/05/20 13:53 KMPO 201353Z AUTO 25009KT 10SM OVC006 17/17 A3000 RMK AO2 RAB03E45 CIG 003V009 SLP156 P0001 T01720172
 
KACY - Atlantic City, New Jersey
Updated: Sun, 20-May-2018 9:54am EDT
Overcast
Overcast
 Wind from SW
Wind: SW 14 mph , 22 km/h, Gust: 25 mph , 41 km/h
Temperature: 75°F , 24°C
Dew Point: 70°F , 21°C
Humidity: 83%
Barometer: 30.01 inHg , 1016.3 hPa
Clouds: Overcast
Visibility: 10 miles , 16 km
Cloud details: Overcast 1700 ft
2018/05/20 13:54 KACY 201354Z 23012G22KT 10SM OVC017 24/21 A3001 RMK AO2 SLP161 T02440211 $
KMIV - Millville, New Jersey
Updated: Sun, 20-May-2018 9:54am EDT
Overcast
Overcast
 Wind from WSW
Wind: WSW 8 mph , 13 km/h, Gust: 22 mph , 35 km/h
Temperature: 75°F , 24°C
Dew Point: 70°F , 21°C
Humidity: 83%
Barometer: 30.02 inHg , 1016.6 hPa
Clouds: Overcast
Visibility: 10 miles , 16 km
Cloud details: Mostly Cloudy 1800 ft
Overcast 2600 ft
2018/05/20 13:54 KMIV 201354Z AUTO 25007G19KT 10SM BKN018 OVC026 24/21 A3002 RMK AO2 SLP163 T02440211
 
KWWD - Wildwood, New Jersey
Updated: Sun, 20-May-2018 9:55am EDT
Overcast
Overcast
 Wind from SW
Wind: SW 14 mph , 22 km/h, Gust: 21 mph , 33 km/h
Temperature: 73°F , 23°C
Dew Point: 70°F , 21°C
Humidity: 89%
Barometer: 30.03 inHg , 1016.9 hPa
Clouds: Overcast
Visibility: 10 miles , 16 km
Cloud details: Overcast 1800 ft
2018/05/20 13:55 KWWD 201355Z AUTO 23012G18KT 10SM OVC018 23/21 A3003 RMK AO2 SLP172 T02330206
KDOV - Dover Afb, Delaware
Updated: Sun, 20-May-2018 9:56am EDT
Mostly Cloudy
Mostly Cloudy
 Wind from SW
Wind: SW 12 mph , 19 km/h
Temperature: 77°F , 25°C
Dew Point: 70°F , 21°C
Humidity: 79%
Barometer: 30.01 inHg , 1016.3 hPa
Clouds: Mostly Cloudy
Visibility: 10 miles , 16 km
Cloud details: Mostly Cloudy 1800 ft
2018/05/20 13:56 KDOV 201356Z AUTO 23010KT 10SM BKN018 25/21 A3001 RMK AO2 SLP165 T02490210 $
Severe Weather Map
Recent Forum Post
[Philadelphia] 2017 -2018 Winter snow forecast by JC December 06, 2017, 02:00:35 AM
[Philadelphia] Request for Philly Snow Data by JC February 14, 2017, 08:42:21 PM
[Philadelphia] 2016 -2017 Winter snow forecast by JC December 01, 2016, 04:56:31 AM
[Philadelphia] Winter forecast 2016-2017 by xyonist November 30, 2016, 01:14:08 PM
[Philadelphia] 102.7 last Saturday by JC August 20, 2016, 03:26:22 AM
[Philadelphia] 2015 -2016 Winter snow forecast by JC April 19, 2016, 09:42:40 AM
[Philadelphia] Latest Models on Weekend Storm (Photos) by JC January 23, 2016, 12:01:03 PM
[Philadelphia] Possible large snow storm for end of week ? by JC January 21, 2016, 09:17:47 AM